createdAt,value
2022-10-13T00:09:49.858Z,49.10
2022-10-13T00:19:52.796Z,47.40
2022-10-13T00:29:55.974Z,49.90
2022-10-13T00:39:58.958Z,48.40
2022-10-13T00:50:03.062Z,52.30
2022-10-13T01:00:07.764Z,47.90
2022-10-13T01:10:11.087Z,50.20
2022-10-13T01:20:48.648Z,44.20
2022-10-13T01:31:16.323Z,46.40
2022-10-13T01:41:29.205Z,47.40
2022-10-13T01:51:34.204Z,39.50
2022-10-13T02:02:05.048Z,41.40
2022-10-13T02:12:17.191Z,43.20
2022-10-13T02:22:22.309Z,41.70
2022-10-13T02:32:26.106Z,48.10
2022-10-13T02:42:29.318Z,43.50
2022-10-13T02:52:35.333Z,45.90
2022-10-13T03:02:38.533Z,50.10
2022-10-13T03:12:41.651Z,56.50
2022-10-13T03:22:49.436Z,58.00
2022-10-13T03:32:53.349Z,59.30
2022-10-13T03:42:56.904Z,58.10
2022-10-13T03:53:00.451Z,57.80
2022-10-13T04:03:03.689Z,60.30
2022-10-13T04:13:07.063Z,55.90
2022-10-13T04:23:10.337Z,53.90
2022-10-13T04:33:17.070Z,49.20
2022-10-13T04:43:20.069Z,48.40
2022-10-13T04:53:26.658Z,49.70
2022-10-13T05:13:33.111Z,45.20
2022-10-13T05:23:36.375Z,43.50
2022-10-13T05:33:39.787Z,51.40
2022-10-13T05:43:43.177Z,52.30
2022-10-13T05:53:55.364Z,58.60
2022-10-13T06:04:06.350Z,53.90
2022-10-13T06:14:09.376Z,50.10
2022-10-13T06:24:12.394Z,46.20
2022-10-13T06:34:15.745Z,48.40
2022-10-13T06:44:20.465Z,49.00
2022-10-13T06:54:23.478Z,39.80
2022-10-13T07:04:28.121Z,39.80
2022-10-13T07:14:34.423Z,41.20
2022-10-13T07:24:37.496Z,35.30
2022-10-13T07:34:40.564Z,35.90
2022-10-13T07:44:43.823Z,28.20
2022-10-13T07:54:46.751Z,29.90
2022-10-13T08:04:50.106Z,25.80
2022-10-13T08:14:53.192Z,27.80
2022-10-13T08:24:56.313Z,25.50
2022-10-13T08:34:59.501Z,24.60
2022-10-13T08:45:39.302Z,24.60
2022-10-13T08:55:56.352Z,22.40
2022-10-13T09:06:32.315Z,16.60
2022-10-13T09:16:41.457Z,16.60
2022-10-13T09:26:50.236Z,19.70
2022-10-13T09:36:58.522Z,13.10
2022-10-13T09:47:04.151Z,16.20
2022-10-13T10:07:31.877Z,9.20
2022-10-13T10:28:10.487Z,10.10
2022-10-13T10:38:32.494Z,9.60
2022-10-13T10:48:39.028Z,8.50
2022-10-13T10:58:53.605Z,7.30
2022-10-13T11:08:58.343Z,9.90
2022-10-13T11:19:08.070Z,5.90
2022-10-13T11:29:20.030Z,9.30
2022-10-13T11:50:06.404Z,10.30
2022-10-13T12:00:17.376Z,8.00
2022-10-13T12:10:30.478Z,11.20
2022-10-13T12:20:33.568Z,11.10
2022-10-13T12:30:37.268Z,9.40
2022-10-13T12:40:43.790Z,14.40
2022-10-13T12:50:47.043Z,12.10
2022-10-13T13:01:26.007Z,12.20
2022-10-13T13:11:39.219Z,13.20
2022-10-13T13:21:45.553Z,13.80
2022-10-13T13:31:48.710Z,11.10
2022-10-13T13:41:51.930Z,12.60
2022-10-13T13:51:55.315Z,10.80
2022-10-13T14:01:58.849Z,10.20
2022-10-13T14:12:02.673Z,8.00
2022-10-13T14:22:19.974Z,11.10
2022-10-13T14:32:23.407Z,13.60
2022-10-13T14:42:26.610Z,8.70
2022-10-13T14:52:29.691Z,10.10
2022-10-13T15:02:33.233Z,13.40
2022-10-13T15:12:36.353Z,15.40
2022-10-13T15:22:39.428Z,14.40
2022-10-13T15:32:48.742Z,16.10
2022-10-13T15:42:52.899Z,12.20
2022-10-13T15:52:56.051Z,19.10
2022-10-13T16:02:59.253Z,19.30
2022-10-13T16:13:02.566Z,25.80
2022-10-13T16:23:05.647Z,26.50
2022-10-13T16:33:08.916Z,25.00
2022-10-13T16:43:11.904Z,17.80
2022-10-13T16:53:15.276Z,34.80
2022-10-13T17:03:18.600Z,32.40
2022-10-13T17:13:21.970Z,42.10
2022-10-13T17:23:26.586Z,31.10
2022-10-13T17:33:31.779Z,35.90
2022-10-13T17:43:37.145Z,33.10
2022-10-13T18:03:50.746Z,34.60
